Insular — CSDD — position and weather

sailwx.info

Track history (hours):
 
Tides and Currents Weather Stations Pressure Air Temp Water Temp Dewpoint Dewpoint Depression Visibility Wind Speed Wind Dir Waves Ship Positions

Insular

Last reported at 2016-Aug-30 02:30 UTC. Time now 2016-Aug-30 03:12 UTC.
Position N 35°30' W 013°18'.

Length 120 m; draft 5.3 m.

Type: Ship (hazmat cat A). MMSI: 263752000.

Date/timePositionNaut miles runAvg speedWind from/ knotsBaromVisibWave heightAir tempDewpointWater temp
2016-Aug-30 02:30N 35°30' W 013°18'1515.9
2016-Aug-30 01:33N 35°19' W 013°31'1615.7
2016-Aug-30 00:33N 35°09' W 013°45'1616.0
2016-Aug-29 23:33N 34°57' W 013°59'1616.1
2016-Aug-29 22:33N 34°46' W 014°12'1615.8
2016-Aug-29 21:33N 34°35' W 014°26'1615.8
2016-Aug-29 20:33N 34°24' W 014°40'1615.5
2016-Aug-29 19:33N 34°13' W 014°53'1515.4
2016-Aug-29 18:33N 34°02' W 015°06'1515.2
2016-Aug-29 17:33N 33°51' W 015°19'1515.4
2016-Aug-29 16:33N 33°39' W 015°31'1515.1
2016-Aug-29 15:34N 33°28' W 015°44'1515.3
2016-Aug-29 14:33N 33°17' W 015°56'1615.7
2016-Aug-29 13:33N 33°06' W 016°10'1615.7
2016-Aug-29 12:33N 32°55' W 016°23'1815.4
2016-Aug-29 11:23N 32°43' W 016°39'5 1.2
2016-Aug-29 07:31N 32°44' W 016°44'0 0.0
2016-Aug-29 06:17N 32°44' W 016°44'0 0.0
2016-Aug-29 01:33N 32°44' W 016°44'0 0.0
2016-Aug-28 18:33N 32°44' W 016°44'17 2.4
2016-Aug-28 11:14N 32°38' W 017°03'1215.0
2016-Aug-28 10:26N 32°43' W 017°15'38013.6
2016-Aug-27 06:32N 36°21' W 023°33'2713.8
2016-Aug-27 04:33N 36°37' W 024°01'1313.1
2016-Aug-27 03:33N 36°44' W 024°15'1413.6
2016-Aug-27 02:33N 36°52' W 024°29'1313.4
2016-Aug-27 01:33N 36°60' W 024°42'1413.5
2016-Aug-27 00:33N 37°09' W 024°55'1313.3
2016-Aug-26 23:33N 37°18' W 025°07'1313.5
2016-Aug-26 22:33N 37°28' W 025°19'1515.0
2016-Aug-26 21:33N 37°38' W 025°32'8 8.2
2016-Aug-26 20:32N 37°44' W 025°40'0 0.0
2016-Aug-26 19:32N 37°44' W 025°40'0 0.0
2016-Aug-26 18:32N 37°44' W 025°40'0 0.0
2016-Aug-26 17:32N 37°44' W 025°40'0 0.0
2016-Aug-26 16:32N 37°44' W 025°40'0 0.0
2016-Aug-26 15:32N 37°44' W 025°40'0 0.0
2016-Aug-26 14:32N 37°44' W 025°40'0 0.0
2016-Aug-26 13:32N 37°44' W 025°40'0 0.0
2016-Aug-26 12:32N 37°44' W 025°40'0 0.0
2016-Aug-26 11:32N 37°44' W 025°40'0 0.0
2016-Aug-26 10:32N 37°44' W 025°40'0 0.0
2016-Aug-26 09:32N 37°44' W 025°40'0 0.0
2016-Aug-26 08:32N 37°44' W 025°40'0 0.2
2016-Aug-26 07:33N 37°44' W 025°40'3 2.9
2016-Aug-26 06:34N 37°43' W 025°43'2613.2
2016-Aug-26 04:33N 38°01' W 026°07'1313.2
2016-Aug-26 03:33N 38°10' W 026°19'1312.7
2016-Aug-26 02:33N 38°19' W 026°31'1312.7
2016-Aug-26 01:33N 38°28' W 026°42'1312.4
2016-Aug-26 00:33N 38°37' W 026°53'10 0.7
2016-Aug-25 11:09N 38°43' W 027°03'15 9.6
2016-Aug-25 09:33N 38°51' W 027°20'1414.5
2016-Aug-25 08:33N 38°53' W 027°38'1514.7
2016-Aug-25 07:34N 38°56' W 027°57'1514.7
2016-Aug-25 06:33N 38°59' W 028°15'2914.7
2016-Aug-25 04:33N 39°04' W 028°53'1414.2
2016-Aug-25 03:33N 39°07' W 029°10'1414.4
2016-Aug-25 02:34N 39°09' W 029°29'1414.1
2016-Aug-25 01:33N 39°12' W 029°47'1414.0
2016-Aug-25 00:34N 39°14' W 030°04'1414.4
2016-Aug-24 23:33N 39°16' W 030°23'1514.8
2016-Aug-24 22:34N 39°19' W 030°41'1514.4
2016-Aug-24 21:33N 39°21' W 030°60'8 3.5
2016-Aug-24 19:17N 39°23' W 031°10'6 0.6
2016-Aug-24 08:33N 39°20' W 031°03'3115.4
2016-Aug-24 06:33N 39°10' W 030°25'2713.7
2016-Aug-24 04:34N 39°01' W 029°52'1313.5
2016-Aug-24 03:33N 38°57' W 029°36'1414.2
2016-Aug-24 02:33N 38°52' W 029°19'1413.9
2016-Aug-24 01:34N 38°47' W 029°02'1413.9
2016-Aug-24 00:33N 38°42' W 028°45'1414.0
2016-Aug-23 23:33N 38°37' W 028°28'9 8.6
2016-Aug-23 22:32N 38°32' W 028°19'0 0.0
2016-Aug-23 21:29N 38°32' W 028°19'0 0.0
2016-Aug-23 20:32N 38°32' W 028°19'0 0.0
2016-Aug-23 19:32N 38°32' W 028°19'0 0.0
2016-Aug-23 18:32N 38°32' W 028°19'0 0.0
2016-Aug-23 17:32N 38°32' W 028°19'0 0.0
2016-Aug-23 16:32N 38°32' W 028°19'0 0.0
2016-Aug-23 15:32N 38°32' W 028°19'0 0.0
2016-Aug-23 14:29N 38°32' W 028°19'0 0.0
2016-Aug-23 13:32N 38°32' W 028°19'0 0.0
2016-Aug-23 12:29N 38°32' W 028°19'0 0.0
2016-Aug-23 11:32N 38°32' W 028°19'0 0.0
2016-Aug-23 10:32N 38°32' W 028°19'0 0.0
2016-Aug-23 09:32N 38°32' W 028°19'1 0.9
2016-Aug-23 08:33N 38°33' W 028°19'9 8.9
2016-Aug-23 07:33N 38°32' W 028°07'1414.1
2016-Aug-23 06:33N 38°26' W 027°51'1313.2
2016-Aug-23 05:33N 38°20' W 027°36'1111.5
2016-Aug-23 04:33N 38°15' W 027°22'1212.2
2016-Aug-23 03:33N 38°11' W 027°08'1312.7
2016-Aug-23 02:34N 38°06' W 026°53'1313.3
2016-Aug-23 01:33N 38°01' W 026°38'1413.9
2016-Aug-23 00:33N 37°56' W 026°21'1414.0
2016-Aug-22 23:33N 37°50' W 026°05'1413.9
2016-Aug-22 22:33N 37°45' W 025°49'7 7.0
2016-Aug-22 21:33N 37°44' W 025°40'0 0.0
2016-Aug-22 20:33N 37°44' W 025°40'0 0.0
2016-Aug-22 19:33N 37°44' W 025°40'0 0.0
2016-Aug-22 18:33N 37°44' W 025°40'0 0.0
2016-Aug-22 17:33N 37°44' W 025°40'0 0.0
2016-Aug-22 16:33N 37°44' W 025°40'0 0.0
2016-Aug-22 15:33N 37°44' W 025°40'0 0.0
2016-Aug-22 14:30N 37°44' W 025°40'0 0.0
2016-Aug-22 13:33N 37°44' W 025°40'0 0.0
2016-Aug-22 12:33N 37°44' W 025°40'0 0.0
2016-Aug-22 11:33N 37°44' W 025°40'0 0.0
2016-Aug-22 10:33N 37°44' W 025°40'0 0.0
2016-Aug-22 09:33N 37°44' W 025°40'0 0.0
2016-Aug-22 08:33N 37°44' W 025°40'0 0.1
2016-Aug-22 07:33N 37°44' W 025°40'6 5.9
2016-Aug-22 06:33N 37°42' W 025°33'1414.5
2016-Aug-22 05:33N 37°41' W 025°15'1514.8
2016-Aug-22 04:33N 37°42' W 024°56'1414.1
2016-Aug-22 03:33N 37°43' W 024°38'1414.1
2016-Aug-22 02:34N 37°44' W 024°20'1413.8
2016-Aug-22 01:33N 37°45' W 024°03'1414.0
2016-Aug-22 00:33N 37°47' W 023°45'1413.8
2016-Aug-21 23:33N 37°48' W 023°28'62815.0
2016-Aug-20 05:33N 38°31' W 010°11'1515.1
2016-Aug-20 04:33N 38°33' W 009°52'1515.3
2016-Aug-20 03:33N 38°35' W 009°33'1413.9
2016-Aug-20 02:33N 38°41' W 009°16'  
Track history (hours):
 
Tides and Currents Weather Stations Pressure Air Temp Water Temp Dewpoint Dewpoint Depression Visibility Wind Speed Wind Dir Waves Ship Positions

Insular

Last reported at 2016-Aug-30 02:30 UTC. Time now 2016-Aug-30 03:12 UTC.
Position N 35°30' W 013°18'.

Length 120 m; draft 5.3 m.

Type: Ship (hazmat cat A). MMSI: 263752000.

Date/timePositionNaut miles runAvg speedWind from/ knotsBaromVisibWave heightAir tempDewpointWater temp
2016-Aug-30 02:30N 35°30' W 013°18'1515.9
2016-Aug-30 01:33N 35°19' W 013°31'1615.7
2016-Aug-30 00:33N 35°09' W 013°45'1616.0
2016-Aug-29 23:33N 34°57' W 013°59'1616.1
2016-Aug-29 22:33N 34°46' W 014°12'1615.8
2016-Aug-29 21:33N 34°35' W 014°26'1615.8
2016-Aug-29 20:33N 34°24' W 014°40'1615.5
2016-Aug-29 19:33N 34°13' W 014°53'1515.4
2016-Aug-29 18:33N 34°02' W 015°06'1515.2
2016-Aug-29 17:33N 33°51' W 015°19'1515.4
2016-Aug-29 16:33N 33°39' W 015°31'1515.1
2016-Aug-29 15:34N 33°28' W 015°44'1515.3
2016-Aug-29 14:33N 33°17' W 015°56'1615.7
2016-Aug-29 13:33N 33°06' W 016°10'1615.7
2016-Aug-29 12:33N 32°55' W 016°23'1815.4
2016-Aug-29 11:23N 32°43' W 016°39'5 1.2
2016-Aug-29 07:31N 32°44' W 016°44'0 0.0
2016-Aug-29 06:17N 32°44' W 016°44'0 0.0
2016-Aug-29 01:33N 32°44' W 016°44'0 0.0
2016-Aug-28 18:33N 32°44' W 016°44'17 2.4
2016-Aug-28 11:14N 32°38' W 017°03'1215.0
2016-Aug-28 10:26N 32°43' W 017°15'38013.6
2016-Aug-27 06:32N 36°21' W 023°33'2713.8
2016-Aug-27 04:33N 36°37' W 024°01'1313.1
2016-Aug-27 03:33N 36°44' W 024°15'1413.6
2016-Aug-27 02:33N 36°52' W 024°29'1313.4
2016-Aug-27 01:33N 36°60' W 024°42'1413.5
2016-Aug-27 00:33N 37°09' W 024°55'1313.3
2016-Aug-26 23:33N 37°18' W 025°07'1313.5
2016-Aug-26 22:33N 37°28' W 025°19'1515.0
2016-Aug-26 21:33N 37°38' W 025°32'8 8.2
2016-Aug-26 20:32N 37°44' W 025°40'0 0.0
2016-Aug-26 19:32N 37°44' W 025°40'0 0.0
2016-Aug-26 18:32N 37°44' W 025°40'0 0.0
2016-Aug-26 17:32N 37°44' W 025°40'0 0.0
2016-Aug-26 16:32N 37°44' W 025°40'0 0.0
2016-Aug-26 15:32N 37°44' W 025°40'0 0.0
2016-Aug-26 14:32N 37°44' W 025°40'0 0.0
2016-Aug-26 13:32N 37°44' W 025°40'0 0.0
2016-Aug-26 12:32N 37°44' W 025°40'0 0.0
2016-Aug-26 11:32N 37°44' W 025°40'0 0.0
2016-Aug-26 10:32N 37°44' W 025°40'0 0.0
2016-Aug-26 09:32N 37°44' W 025°40'0 0.0
2016-Aug-26 08:32N 37°44' W 025°40'0 0.2
2016-Aug-26 07:33N 37°44' W 025°40'3 2.9
2016-Aug-26 06:34N 37°43' W 025°43'2613.2
2016-Aug-26 04:33N 38°01' W 026°07'1313.2
2016-Aug-26 03:33N 38°10' W 026°19'1312.7
2016-Aug-26 02:33N 38°19' W 026°31'1312.7
2016-Aug-26 01:33N 38°28' W 026°42'1312.4
2016-Aug-26 00:33N 38°37' W 026°53'10 0.7
2016-Aug-25 11:09N 38°43' W 027°03'15 9.6
2016-Aug-25 09:33N 38°51' W 027°20'1414.5
2016-Aug-25 08:33N 38°53' W 027°38'1514.7
2016-Aug-25 07:34N 38°56' W 027°57'1514.7
2016-Aug-25 06:33N 38°59' W 028°15'2914.7
2016-Aug-25 04:33N 39°04' W 028°53'1414.2
2016-Aug-25 03:33N 39°07' W 029°10'1414.4
2016-Aug-25 02:34N 39°09' W 029°29'1414.1
2016-Aug-25 01:33N 39°12' W 029°47'1414.0
2016-Aug-25 00:34N 39°14' W 030°04'1414.4
2016-Aug-24 23:33N 39°16' W 030°23'1514.8
2016-Aug-24 22:34N 39°19' W 030°41'1514.4
2016-Aug-24 21:33N 39°21' W 030°60'8 3.5
2016-Aug-24 19:17N 39°23' W 031°10'6 0.6
2016-Aug-24 08:33N 39°20' W 031°03'3115.4
2016-Aug-24 06:33N 39°10' W 030°25'2713.7
2016-Aug-24 04:34N 39°01' W 029°52'1313.5
2016-Aug-24 03:33N 38°57' W 029°36'1414.2
2016-Aug-24 02:33N 38°52' W 029°19'1413.9
2016-Aug-24 01:34N 38°47' W 029°02'1413.9
2016-Aug-24 00:33N 38°42' W 028°45'1414.0
2016-Aug-23 23:33N 38°37' W 028°28'9 8.6
2016-Aug-23 22:32N 38°32' W 028°19'0 0.0
2016-Aug-23 21:29N 38°32' W 028°19'0 0.0
2016-Aug-23 20:32N 38°32' W 028°19'0 0.0
2016-Aug-23 19:32N 38°32' W 028°19'0 0.0
2016-Aug-23 18:32N 38°32' W 028°19'0 0.0
2016-Aug-23 17:32N 38°32' W 028°19'0 0.0
2016-Aug-23 16:32N 38°32' W 028°19'0 0.0
2016-Aug-23 15:32N 38°32' W 028°19'0 0.0
2016-Aug-23 14:29N 38°32' W 028°19'0 0.0
2016-Aug-23 13:32N 38°32' W 028°19'0 0.0
2016-Aug-23 12:29N 38°32' W 028°19'0 0.0
2016-Aug-23 11:32N 38°32' W 028°19'0 0.0
2016-Aug-23 10:32N 38°32' W 028°19'0 0.0
2016-Aug-23 09:32N 38°32' W 028°19'1 0.9
2016-Aug-23 08:33N 38°33' W 028°19'9 8.9
2016-Aug-23 07:33N 38°32' W 028°07'1414.1
2016-Aug-23 06:33N 38°26' W 027°51'1313.2
2016-Aug-23 05:33N 38°20' W 027°36'1111.5
2016-Aug-23 04:33N 38°15' W 027°22'1212.2
2016-Aug-23 03:33N 38°11' W 027°08'1312.7
2016-Aug-23 02:34N 38°06' W 026°53'1313.3
2016-Aug-23 01:33N 38°01' W 026°38'1413.9
2016-Aug-23 00:33N 37°56' W 026°21'1414.0
2016-Aug-22 23:33N 37°50' W 026°05'1413.9
2016-Aug-22 22:33N 37°45' W 025°49'7 7.0
2016-Aug-22 21:33N 37°44' W 025°40'0 0.0
2016-Aug-22 20:33N 37°44' W 025°40'0 0.0
2016-Aug-22 19:33N 37°44' W 025°40'0 0.0
2016-Aug-22 18:33N 37°44' W 025°40'0 0.0
2016-Aug-22 17:33N 37°44' W 025°40'0 0.0
2016-Aug-22 16:33N 37°44' W 025°40'0 0.0
2016-Aug-22 15:33N 37°44' W 025°40'0 0.0
2016-Aug-22 14:30N 37°44' W 025°40'0 0.0
2016-Aug-22 13:33N 37°44' W 025°40'0 0.0
2016-Aug-22 12:33N 37°44' W 025°40'0 0.0
2016-Aug-22 11:33N 37°44' W 025°40'0 0.0
2016-Aug-22 10:33N 37°44' W 025°40'0 0.0
2016-Aug-22 09:33N 37°44' W 025°40'0 0.0
2016-Aug-22 08:33N 37°44' W 025°40'0 0.1
2016-Aug-22 07:33N 37°44' W 025°40'6 5.9
2016-Aug-22 06:33N 37°42' W 025°33'1414.5
2016-Aug-22 05:33N 37°41' W 025°15'1514.8
2016-Aug-22 04:33N 37°42' W 024°56'1414.1
2016-Aug-22 03:33N 37°43' W 024°38'1414.1
2016-Aug-22 02:34N 37°44' W 024°20'1413.8
2016-Aug-22 01:33N 37°45' W 024°03'1414.0
2016-Aug-22 00:33N 37°47' W 023°45'1413.8
2016-Aug-21 23:33N 37°48' W 023°28'62815.0
2016-Aug-20 05:33N 38°31' W 010°11'1515.1
2016-Aug-20 04:33N 38°33' W 009°52'1515.3
2016-Aug-20 03:33N 38°35' W 009°33'1413.9
2016-Aug-20 02:33N 38°41' W 009°16'  

Dump ship's entire track history